Time;durP1;ratioP1;P1;durP2;ratioP2;P2;SDS_P1;SDS_P2;PMS_P1;PMS_P2;Temp;Humidity;BMP_temperature;BMP_pressure;BME280_temperature;BME280_humidity;BME280_pressure;Samples;Min_cycle;Max_cycle;Signal;HPM_P1;HPM_P2
2022/07/15 00:00:06;;;;;;;9.98;2.00;;;;;;;11.71;92.28;102090.06;1048921;28;20040;-80
2022/07/15 00:00:37;;;;;;;6.63;1.92;;;;;;;11.61;91.96;102088.75;1042892;28;20069;-80
2022/07/15 00:01:09;;;;;;;6.55;2.08;;;;;;;11.52;92.02;102080.06;1049478;28;20298;-80
2022/07/15 00:01:42;;;;;;;8.15;2.00;;;;;;;11.50;92.06;102087.41;1044320;28;20564;-80
2022/07/15 00:02:14;;;;;;;8.32;1.70;;;;;;;11.53;92.14;102078.22;1041177;28;20049;-80
2022/07/15 00:02:45;;;;;;;5.97;1.85;;;;;;;11.46;92.12;102080.81;1040249;28;20303;-80
2022/07/15 00:03:17;;;;;;;6.90;2.38;;;;;;;11.52;92.44;102079.22;1037508;28;20053;-80
2022/07/15 00:03:49;;;;;;;6.88;2.08;;;;;;;11.59;92.55;102080.94;1041067;28;20552;-79
2022/07/15 00:04:21;;;;;;;4.32;1.65;;;;;;;11.67;92.79;102082.63;1045083;28;20040;-80
2022/07/15 00:04:53;;;;;;;9.32;2.35;;;;;;;11.70;92.69;102085.72;1049181;28;20044;-80
2022/07/15 00:05:25;;;;;;;6.75;1.95;;;;;;;11.76;92.85;102081.47;1049278;28;20044;-80
2022/07/15 00:05:56;;;;;;;8.70;2.22;;;;;;;11.79;92.78;102083.81;1052777;28;20044;-80
2022/07/15 00:06:28;;;;;;;3.78;1.70;;;;;;;11.81;92.81;102089.78;1052881;28;20043;-80
2022/07/15 00:07:00;;;;;;;5.18;2.10;;;;;;;11.76;92.92;102082.28;1049220;28;20048;-80
2022/07/15 00:07:32;;;;;;;5.47;2.08;;;;;;;11.72;92.71;102090.88;1046177;28;20111;-80
2022/07/15 00:08:04;;;;;;;4.53;1.77;;;;;;;11.72;92.73;102085.53;1048580;28;20040;-80
2022/07/15 00:08:36;;;;;;;4.47;1.88;;;;;;;11.70;92.48;102087.59;1049296;28;20083;-80
2022/07/15 00:09:08;;;;;;;8.63;2.63;;;;;;;11.70;92.59;102082.25;1052870;28;20040;-80
2022/07/15 00:10:30;;;;;;;7.75;2.20;;;;;;;11.51;92.48;102081.06;1048139;28;20145;-79
2022/07/15 00:11:02;;;;;;;9.63;2.20;;;;;;;11.50;92.26;102082.06;1052849;28;20044;-80
2022/07/15 00:11:34;;;;;;;4.38;2.38;;;;;;;11.45;92.65;102077.31;1048811;28;20068;-80
2022/07/15 00:12:06;;;;;;;6.88;2.65;;;;;;;11.41;93.02;102086.72;1051693;28;20485;-79
2022/07/15 00:12:38;;;;;;;5.38;1.60;;;;;;;11.31;92.89;102086.22;1052882;28;20032;-79
2022/07/15 00:13:09;;;;;;;10.13;1.90;;;;;;;11.24;93.09;102087.19;1052845;28;20036;-79
2022/07/15 00:13:41;;;;;;;5.57;1.95;;;;;;;11.18;93.26;102082.56;1052949;28;20040;-79
2022/07/15 00:14:12;;;;;;;7.47;1.90;;;;;;;11.10;93.28;102083.53;1052684;28;20039;-80
2022/07/15 00:14:44;;;;;;;7.88;2.03;;;;;;;11.07;93.49;102078.59;1048596;28;20108;-79
2022/07/15 00:15:17;;;;;;;8.88;2.17;;;;;;;11.04;93.95;102081.63;1049046;28;20306;-79
2022/07/15 00:15:48;;;;;;;5.45;2.20;;;;;;;10.99;94.03;102082.19;1052887;28;20102;-80
2022/07/15 00:16:20;;;;;;;7.65;2.33;;;;;;;10.97;94.38;102086.91;1048620;28;20044;-79
2022/07/15 00:16:52;;;;;;;10.05;1.88;;;;;;;10.94;94.54;102081.09;1045132;28;20379;-80
2022/07/15 00:17:23;;;;;;;10.25;2.53;;;;;;;10.92;94.98;102083.13;1044349;28;20048;-80
2022/07/15 00:17:57;;;;;;;5.38;2.22;;;;;;;10.89;94.77;102075.50;1040854;28;20037;-80
2022/07/15 00:18:28;;;;;;;4.60;1.67;;;;;;;10.82;95.20;102086.91;1041079;28;20038;-79
2022/07/15 00:19:00;;;;;;;5.25;1.92;;;;;;;10.82;95.47;102081.59;1045081;28;20045;-80
2022/07/15 00:19:34;;;;;;;10.40;2.30;;;;;;;10.83;95.66;102075.25;1049295;28;20041;-80
2022/07/15 00:20:06;;;;;;;8.05;2.10;;;;;;;10.86;95.32;102081.22;1049473;28;20041;-80
2022/07/15 00:20:38;;;;;;;7.90;2.13;;;;;;;10.84;95.64;102082.22;1043674;28;20045;-80
2022/07/15 00:21:10;;;;;;;5.57;1.85;;;;;;;10.83;95.34;102085.91;1044395;28;20033;-79
2022/07/15 00:21:42;;;;;;;10.40;2.20;;;;;;;10.81;95.51;102077.28;1045115;28;20094;-80
2022/07/15 00:22:13;;;;;;;8.52;2.47;;;;;;;10.76;95.22;102090.34;1048927;28;20037;-80
2022/07/15 00:22:48;;;;;;;9.90;2.25;;;;;;;10.77;95.65;102092.00;1048496;28;20398;-80
2022/07/15 00:23:20;;;;;;;5.78;1.95;;;;;;;10.75;95.86;102080.69;1044122;28;20037;-80
2022/07/15 00:23:52;;;;;;;5.18;2.63;;;;;;;10.78;95.83;102082.97;1037164;28;20296;-79
2022/07/15 00:24:23;;;;;;;10.07;2.25;;;;;;;10.78;95.64;102082.97;1041234;28;20518;-80
2022/07/15 00:24:55;;;;;;;5.60;1.75;;;;;;;10.76;95.92;102078.84;1040870;28;20037;-80
2022/07/15 00:25:27;;;;;;;5.88;2.00;;;;;;;10.69;95.74;102078.78;1041570;28;20041;-79
2022/07/15 00:25:58;;;;;;;7.18;2.22;;;;;;;10.67;95.49;102086.09;1048630;28;20407;-80
2022/07/15 00:26:30;;;;;;;5.18;1.95;;;;;;;10.64;95.66;102085.66;1044930;28;20047;-80
2022/07/15 00:27:07;;;;;;;7.72;2.80;;;;;;;10.62;95.76;102077.84;1044318;28;20295;-80
2022/07/15 00:27:54;;;;;;;8.32;1.80;;;;;;;10.61;95.75;102084.19;1044337;28;20726;-79
2022/07/15 00:28:28;;;;;;;6.47;2.05;;;;;;;10.59;95.84;102072.06;1043572;28;20381;-79
2022/07/15 00:28:59;;;;;;;6.65;2.20;;;;;;;10.56;96.11;102083.94;1047096;28;20491;-79
2022/07/15 00:29:31;;;;;;;8.80;1.98;;;;;;;10.54;95.80;102077.97;1048536;28;20303;-80
2022/07/15 00:30:04;;;;;;;7.88;1.73;;;;;;;10.53;95.95;102078.97;1045779;28;20399;-80
2022/07/15 00:30:40;;;;;;;5.53;2.05;;;;;;;10.52;96.43;102077.31;1048270;28;20441;-80
2022/07/15 00:35:10;;;;;;;4.43;1.67;;;;;;;10.45;97.25;102082.56;1046525;28;20774;-79
2022/07/15 00:35:41;;;;;;;3.25;1.80;;;;;;;10.41;97.04;102081.28;1048649;28;20283;-80
2022/07/15 00:36:14;;;;;;;6.95;1.63;;;;;;;10.38;96.74;102080.81;1040100;28;20804;-79
2022/07/15 00:36:46;;;;;;;8.35;1.52;;;;;;;10.35;96.93;102081.19;1035908;28;20705;-79
2022/07/15 00:37:17;;;;;;;11.13;2.13;;;;;;;10.35;97.18;102081.19;1032779;28;20723;-79
2022/07/15 00:37:49;;;;;;;7.40;1.88;;;;;;;10.35;97.29;102082.00;1025256;28;20508;-79
2022/07/15 00:38:21;;;;;;;10.75;2.20;;;;;;;10.35;97.44;102082.00;1039082;28;20303;-79
2022/07/15 00:38:53;;;;;;;7.03;1.83;;;;;;;10.34;97.13;102080.34;1040754;28;20300;-79
2022/07/15 00:39:24;;;;;;;4.63;1.75;;;;;;;10.40;97.43;102078.78;1044926;28;20291;-79
2022/07/15 00:39:56;;;;;;;4.80;1.70;;;;;;;10.38;97.13;102084.28;1048378;28;20294;-79
2022/07/15 00:40:28;;;;;;;9.23;2.03;;;;;;;10.37;96.84;102079.16;1048497;28;20393;-79
2022/07/15 00:41:01;;;;;;;5.75;2.25;;;;;;;10.36;97.24;102075.66;1044350;28;20298;-79
2022/07/15 00:41:39;;;;;;;4.55;1.75;;;;;;;10.37;97.20;102084.47;1044011;28;20792;-79
2022/07/15 00:42:43;;;;;;;6.50;1.85;;;;;;;10.33;96.82;102077.88;1040226;28;20324;-79
2022/07/15 00:43:05;;;;;;;5.88;1.92;;;;;;;10.31;97.03;102074.56;1043665;28;20700;-79
2022/07/15 00:43:39;;;;;;;5.90;2.03;;;;;;;10.36;97.33;102080.16;1040132;28;20307;-79
2022/07/15 00:44:11;;;;;;;2.85;1.85;;;;;;;10.35;96.97;102086.50;1043989;28;20275;-80
2022/07/15 00:44:43;;;;;;;6.43;1.88;;;;;;;10.33;96.96;102083.19;1040378;28;20879;-80
2022/07/15 00:45:17;;;;;;;5.38;1.55;;;;;;;10.28;96.43;102082.94;1040913;28;20296;-80
2022/07/15 00:45:49;;;;;;;6.28;1.52;;;;;;;10.29;96.82;102073.94;1045178;28;20294;-80
2022/07/15 00:46:20;;;;;;;6.03;2.65;;;;;;;10.26;96.50;102077.78;1040959;28;20340;-80
2022/07/15 00:46:53;;;;;;;3.33;1.63;;;;;;;10.23;96.66;102077.34;1036008;28;20308;-79
2022/07/15 00:47:25;;;;;;;3.67;1.80;;;;;;;10.18;96.49;102078.69;1031978;28;20301;-79
2022/07/15 00:47:57;;;;;;;5.93;2.28;;;;;;;10.15;96.26;102079.06;1028522;28;20324;-80
2022/07/15 00:48:28;;;;;;;4.35;1.80;;;;;;;10.10;96.38;102076.09;1029241;28;20308;-80
2022/07/15 00:49:02;;;;;;;5.18;2.03;;;;;;;10.06;96.40;102072.13;1032591;28;20392;-80
2022/07/15 00:49:33;;;;;;;7.20;1.92;;;;;;;10.01;96.10;102085.19;1037582;28;20121;-79
2022/07/15 00:50:05;;;;;;;5.68;1.90;;;;;;;9.97;97.04;102067.09;1040903;28;20048;-79
2022/07/15 00:50:37;;;;;;;7.13;1.77;;;;;;;9.95;96.92;102083.25;1032971;28;20289;-79
2022/07/15 00:51:09;;;;;;;3.50;1.67;;;;;;;9.94;96.62;102078.94;1033724;28;20309;-79
2022/07/15 00:51:44;;;;;;;9.50;2.35;;;;;;;9.89;97.23;102076.81;1040771;28;20296;-79
2022/07/15 00:52:17;;;;;;;4.97;2.20;;;;;;;9.89;97.37;102076.00;1045364;28;20680;-79
2022/07/15 00:52:54;;;;;;;9.65;2.10;;;;;;;9.82;97.46;102080.34;1041279;28;20299;-79
2022/07/15 00:53:28;;;;;;;4.13;1.73;;;;;;;9.77;97.46;102075.59;1035940;28;20438;-79
2022/07/15 00:54:00;;;;;;;5.82;2.25;;;;;;;9.77;97.50;102077.41;1036023;28;20289;-79
2022/07/15 00:54:32;;;;;;;4.95;2.22;;;;;;;9.71;97.30;102072.81;1035188;28;20826;-79
2022/07/15 00:55:06;;;;;;;6.13;2.20;;;;;;;9.71;98.21;102080.81;1037116;28;20323;-79
2022/07/15 00:55:41;;;;;;;7.40;2.97;;;;;;;9.70;97.65;102082.63;1036768;28;20825;-79
2022/07/15 00:56:13;;;;;;;7.80;1.88;;;;;;;9.66;98.04;102075.19;1037579;28;20375;-79
2022/07/15 00:56:50;;;;;;;6.93;2.20;;;;;;;9.67;98.04;102082.19;1040086;28;20300;-80
2022/07/15 00:57:23;;;;;;;4.70;1.88;;;;;;;9.62;98.17;102076.56;1036100;28;20289;-80
2022/07/15 00:57:57;;;;;;;5.15;1.75;;;;;;;9.56;98.75;102078.91;1038860;28;20296;-80
2022/07/15 00:58:29;;;;;;;4.97;2.33;;;;;;;9.54;98.21;102075.63;1039600;28;20293;-80
2022/07/15 00:59:01;;;;;;;10.25;2.47;;;;;;;9.51;98.45;102073.31;1041311;28;20386;-80
2022/07/15 00:59:34;;;;;;;4.68;1.92;;;;;;;9.52;98.71;102071.47;1044392;28;20292;-80
2022/07/15 01:00:08;;;;;;;4.93;2.35;;;;;;;9.54;98.77;102072.94;1045053;28;20307;-80
2022/07/15 01:00:41;;;;;;;6.28;2.60;;;;;;;9.58;99.29;102074.25;1037917;28;20438;-79
2022/07/15 01:01:14;;;;;;;4.53;1.80;;;;;;;9.58;99.05;102068.94;1040085;28;20307;-80
2022/07/15 01:04:42;;;;;;;4.25;2.00;;;;;;;9.65;99.12;102078.88;1040555;28;20307;-80
2022/07/15 01:05:14;;;;;;;5.57;1.70;;;;;;;9.59;98.54;102081.25;1042295;28;20381;-80
2022/07/15 01:05:47;;;;;;;6.15;1.98;;;;;;;9.55;98.77;102081.75;1039998;28;20801;-79
2022/07/15 01:06:19;;;;;;;5.53;2.10;;;;;;;9.51;98.36;102081.28;1031931;28;20428;-79
2022/07/15 01:06:51;;;;;;;7.88;2.25;;;;;;;9.50;98.39;102079.66;1032803;28;20300;-79
2022/07/15 01:07:22;;;;;;;4.25;2.30;;;;;;;9.50;98.16;102087.63;1033189;28;20299;-79
2022/07/15 01:07:54;;;;;;;4.07;2.25;;;;;;;9.48;98.92;102084.31;1040655;28;20662;-79
2022/07/15 01:08:26;;;;;;;8.57;2.75;;;;;;;9.44;98.95;102088.34;1040049;28;20295;-79
2022/07/15 01:08:58;;;;;;;3.78;2.10;;;;;;;9.40;98.00;102073.75;1040691;28;20296;-80
2022/07/15 01:09:29;;;;;;;4.60;2.33;;;;;;;9.36;98.94;102079.59;1032544;28;20301;-79
2022/07/15 01:10:01;;;;;;;7.38;1.90;;;;;;;9.34;98.29;102077.13;1036153;28;20299;-79
2022/07/15 01:10:34;;;;;;;3.67;1.95;;;;;;;9.35;98.60;102081.44;1032528;28;20359;-79
2022/07/15 01:11:06;;;;;;;3.75;1.67;;;;;;;9.35;98.62;102086.75;1038223;28;20801;-79
2022/07/15 01:11:38;;;;;;;3.15;1.83;;;;;;;9.35;98.60;102085.94;1048161;28;20294;-79
2022/07/15 01:12:11;;;;;;;4.97;1.92;;;;;;;9.32;99.05;102095.09;1044543;28;20843;-79
2022/07/15 01:12:43;;;;;;;4.47;2.10;;;;;;;9.32;99.06;102087.13;1048096;28;20310;-79
2022/07/15 01:13:16;;;;;;;3.20;2.17;;;;;;;9.32;98.51;102088.94;1044203;28;20300;-79
2022/07/15 01:13:47;;;;;;;4.60;1.73;;;;;;;9.27;98.66;102092.09;1040148;28;20292;-79
2022/07/15 01:14:19;;;;;;;5.93;2.05;;;;;;;9.34;98.47;102093.06;1031986;28;20399;-79
2022/07/15 01:14:53;;;;;;;4.10;2.22;;;;;;;9.46;98.83;102091.66;1035906;28;20307;-79
2022/07/15 01:15:25;;;;;;;7.75;1.90;;;;;;;9.55;99.18;102090.56;1040130;28;20304;-80
2022/07/15 01:15:57;;;;;;;8.05;2.28;;;;;;;9.59;99.09;102086.56;1035401;28;20315;-79
2022/07/15 01:16:29;;;;;;;7.10;2.35;;;;;;;9.63;99.05;102087.03;1033341;28;20424;-79
2022/07/15 01:17:01;;;;;;;3.22;2.22;;;;;;;9.63;98.81;102087.03;1036509;28;20722;-79
2022/07/15 01:17:33;;;;;;;6.97;2.63;;;;;;;9.63;98.54;102092.34;1035948;28;20394;-79
2022/07/15 01:18:11;;;;;;;4.53;2.00;;;;;;;9.57;98.11;102085.88;1025385;28;20302;-79
2022/07/15 01:18:45;;;;;;;6.82;2.03;;;;;;;9.50;98.62;102086.78;1023888;28;20314;-79
2022/07/15 01:19:17;;;;;;;4.55;2.40;;;;;;;9.41;98.74;102094.03;1032471;28;20289;-79
2022/07/15 01:19:50;;;;;;;8.15;2.53;;;;;;;9.36;99.02;102090.25;1034523;28;20306;-79
2022/07/15 01:20:22;;;;;;;6.45;2.17;;;;;;;9.34;98.60;102087.75;1040618;28;20300;-79
2022/07/15 01:20:59;;;;;;;7.20;2.70;;;;;;;9.24;98.59;102092.47;1044230;28;20303;-79
2022/07/15 01:21:31;;;;;;;5.80;2.25;;;;;;;9.18;98.72;102093.19;1045414;28;20777;-79
2022/07/15 01:22:05;;;;;;;8.60;2.25;;;;;;;9.18;99.10;102093.19;1045307;28;20303;-79
2022/07/15 01:22:38;;;;;;;7.82;2.55;;;;;;;9.13;99.10;102090.22;1044117;28;20300;-79
2022/07/15 01:23:09;;;;;;;6.80;2.50;;;;;;;9.13;99.36;102090.22;1035890;28;20797;-79
2022/07/15 01:23:46;;;;;;;5.32;2.50;;;;;;;9.19;99.41;102086.84;1035825;28;20368;-79
2022/07/15 01:24:31;;;;;;;5.28;2.78;;;;;;;9.11;99.20;102092.25;1040025;28;20772;-79
2022/07/15 01:25:14;;;;;;;6.60;2.08;;;;;;;9.10;99.05;102091.41;1032106;28;20775;-79
2022/07/15 01:25:46;;;;;;;7.90;2.58;;;;;;;9.02;99.22;102093.25;1035491;28;20293;-79
2022/07/15 01:26:18;;;;;;;6.43;2.28;;;;;;;9.01;98.82;102094.28;1031891;28;20301;-79
2022/07/15 01:26:50;;;;;;;6.30;2.30;;;;;;;9.06;99.79;102091.94;1031925;28;20723;-79
2022/07/15 01:27:26;;;;;;;7.05;2.30;;;;;;;9.12;100.00;102093.88;1035786;28;20336;-79
2022/07/15 01:27:57;;;;;;;7.47;2.40;;;;;;;9.14;99.95;102087.38;1039927;28;20304;-79
2022/07/15 01:28:31;;;;;;;8.88;2.20;;;;;;;9.18;99.53;102093.19;1039983;28;20311;-79
2022/07/15 01:29:03;;;;;;;9.45;2.55;;;;;;;9.12;100.00;102088.56;1032592;28;20305;-80
2022/07/15 01:29:35;;;;;;;61.60;7.15;;;;;;;9.08;99.25;102082.78;1032409;28;20304;-79
2022/07/15 01:30:07;;;;;;;200.30;18.65;;;;;;;9.07;99.27;102083.78;1035926;28;20860;-79
2022/07/15 01:30:39;;;;;;;331.20;29.52;;;;;;;9.06;99.89;102081.31;1037147;28;20297;-79
2022/07/15 01:31:14;;;;;;;410.23;40.65;;;;;;;9.04;99.59;102085.94;1039987;28;20303;-79
2022/07/15 01:31:47;;;;;;;259.98;24.63;;;;;;;9.13;99.69;102087.56;1039842;28;20300;-80
2022/07/15 01:32:19;;;;;;;303.45;27.15;;;;;;;9.21;99.88;102082.19;1039915;28;20292;-79
2022/07/15 01:32:51;;;;;;;242.85;28.30;;;;;;;9.17;100.00;102088.88;1039942;28;20300;-79
2022/07/15 01:33:23;;;;;;;121.10;11.60;;;;;;;9.11;99.85;102087.75;1031834;28;20300;-79
2022/07/15 01:33:55;;;;;;;79.88;8.80;;;;;;;9.14;100.00;102086.56;1032295;28;20297;-79
2022/07/15 01:34:28;;;;;;;55.03;7.63;;;;;;;9.16;100.00;102087.22;1036324;28;20801;-79
2022/07/15 01:35:00;;;;;;;79.07;8.55;;;;;;;9.12;100.00;102085.91;1040295;28;20697;-79
2022/07/15 01:35:32;;;;;;;29.98;5.25;;;;;;;9.13;100.00;102084.91;1036483;28;20304;-79
2022/07/15 01:36:04;;;;;;;19.83;3.78;;;;;;;9.13;100.00;102082.25;1035807;28;20297;-79
2022/07/15 01:36:38;;;;;;;27.63;4.85;;;;;;;9.19;100.00;102087.69;1035933;28;20775;-80
2022/07/15 01:37:10;;;;;;;7.05;2.45;;;;;;;9.29;100.00;102087.44;1040596;28;20326;-79
2022/07/15 01:37:46;;;;;;;16.88;2.70;;;;;;;9.33;100.00;102082.63;1045485;28;20299;-79
2022/07/15 01:38:18;;;;;;;5.88;2.53;;;;;;;9.30;100.00;102081.13;1043949;28;20295;-79
2022/07/15 01:38:52;;;;;;;8.27;2.58;;;;;;;9.36;100.00;102077.78;1043977;28;20445;-79
2022/07/15 01:39:43;;;;;;;8.75;2.55;;;;;;;9.41;100.00;102077.22;1043283;28;20856;-79
2022/07/15 01:40:15;;;;;;;10.10;2.65;;;;;;;9.45;100.00;102079.34;1043322;28;20299;-79
2022/07/15 01:40:47;;;;;;;8.65;3.28;;;;;;;9.43;100.00;102086.69;1039956;28;20308;-79
2022/07/15 01:41:18;;;;;;;11.73;2.22;;;;;;;9.36;100.00;102080.44;1036502;28;20782;-79
2022/07/15 01:41:50;;;;;;;5.47;2.03;;;;;;;9.35;99.84;102083.28;1032560;28;20379;-79
2022/07/15 01:42:23;;;;;;;6.32;2.25;;;;;;;9.37;99.88;102075.94;1032446;28;20305;-79
2022/07/15 01:42:55;;;;;;;6.80;1.80;;;;;;;9.43;99.92;102085.84;1033408;28;20305;-80
2022/07/15 01:43:26;;;;;;;10.23;2.28;;;;;;;9.40;100.00;102084.38;1043995;28;20310;-79
2022/07/15 01:43:58;;;;;;;14.25;3.50;;;;;;;9.29;99.70;102090.94;1040257;28;20339;-79
2022/07/15 01:44:30;;;;;;;15.52;2.97;;;;;;;9.31;99.61;102082.78;1044662;28;20382;-79
2022/07/15 01:45:04;;;;;;;5.47;2.53;;;;;;;9.32;98.82;102087.13;1044534;28;20356;-79
2022/07/15 01:45:36;;;;;;;10.40;2.33;;;;;;;9.29;98.72;102095.41;1039220;28;20304;-79
2022/07/15 01:46:08;;;;;;;3.78;1.90;;;;;;;9.20;99.13;102096.50;1044125;28;20302;-79
2022/07/15 01:46:41;;;;;;;8.27;2.58;;;;;;;9.16;98.39;102089.88;1040862;28;20332;-79
2022/07/15 01:47:14;;;;;;;11.80;2.42;;;;;;;9.16;98.83;102084.56;1041685;28;20789;-79
2022/07/15 01:47:47;;;;;;;8.70;1.90;;;;;;;9.17;98.31;102087.03;1039762;28;20320;-80
2022/07/15 01:49:42;;;;;;;3.78;1.67;;;;;;;9.32;99.56;102080.97;1042296;28;20057;-79
2022/07/15 01:50:16;;;;;;;3.95;1.98;;;;;;;9.34;99.14;102081.63;1045278;28;20303;-79
2022/07/15 01:51:14;;;;;;;6.30;2.08;;;;;;;9.23;99.65;102082.84;1037926;28;20280;-79
2022/07/15 01:51:46;;;;;;;6.43;2.17;;;;;;;9.22;99.13;102086.50;1047158;28;20317;-79
2022/07/15 01:52:18;;;;;;;3.92;1.60;;;;;;;9.20;99.56;102086.69;1048294;28;20800;-79
2022/07/15 01:52:51;;;;;;;3.53;1.67;;;;;;;9.25;99.62;102088.81;1044095;28;20365;-79
2022/07/15 01:53:24;;;;;;;6.00;1.85;;;;;;;9.28;99.52;102085.78;1044669;28;20360;-79
2022/07/15 01:53:56;;;;;;;5.93;2.20;;;;;;;9.31;99.83;102093.41;1044847;28;20316;-80
2022/07/15 01:54:29;;;;;;;7.50;2.15;;;;;;;9.39;100.00;102090.72;1035850;28;20308;-80
2022/07/15 01:55:06;;;;;;;10.15;2.03;;;;;;;9.50;100.00;102086.78;1039937;28;20303;-80
2022/07/15 01:55:38;;;;;;;7.50;2.08;;;;;;;9.58;99.58;102095.53;1037332;28;20830;-80
2022/07/15 01:56:10;;;;;;;12.27;2.50;;;;;;;9.64;99.62;102094.00;1037114;28;20358;-80
2022/07/15 01:56:43;;;;;;;6.15;2.17;;;;;;;9.69;99.56;102098.78;1039033;28;20303;-80
2022/07/15 01:57:15;;;;;;;5.22;2.78;;;;;;;9.77;98.72;102104.84;1040665;28;20314;-80
2022/07/15 01:57:57;;;;;;;3.47;1.98;;;;;;;9.69;98.57;102106.75;1039854;28;20296;-80
2022/07/15 02:01:52;;;;;;;5.00;1.52;;;;;;;9.60;97.49;102104.19;1048071;28;20405;-79
2022/07/15 02:02:25;;;;;;;6.18;1.70;;;;;;;9.57;97.23;102107.19;1050538;28;20324;-80
2022/07/15 02:02:57;;;;;;;3.42;1.88;;;;;;;9.58;97.71;102108.81;1048060;28;20295;-79
2022/07/15 02:03:28;;;;;;;5.00;2.20;;;;;;;9.64;97.76;102109.16;1048215;28;20302;-79
2022/07/15 02:04:00;;;;;;;5.18;1.80;;;;;;;9.69;98.21;102102.28;1048250;28;20298;-79
2022/07/15 02:04:32;;;;;;;6.78;2.67;;;;;;;9.73;98.10;102103.56;1048569;28;20310;-79
2022/07/15 02:05:04;;;;;;;5.30;2.45;;;;;;;9.68;97.56;102097.97;1052384;28;20667;-79
2022/07/15 02:05:36;;;;;;;9.23;2.63;;;;;;;9.60;97.48;102108.69;1048163;28;20283;-79
2022/07/15 02:06:08;;;;;;;4.53;2.15;;;;;;;9.55;97.84;102101.22;1044319;28;20310;-79
2022/07/15 02:06:40;;;;;;;4.28;2.25;;;;;;;9.68;97.83;102105.13;1044042;28;20883;-79
2022/07/15 02:07:13;;;;;;;7.10;2.03;;;;;;;9.79;98.46;102096.69;1031580;28;20384;-79
2022/07/15 02:07:44;;;;;;;7.70;2.33;;;;;;;9.82;98.49;102093.66;1040457;28;20382;-79
2022/07/15 02:08:18;;;;;;;4.55;2.60;;;;;;;9.86;97.86;102105.59;1040625;28;20320;-79
2022/07/15 02:08:51;;;;;;;9.52;2.50;;;;;;;9.93;98.29;102098.56;1036968;28;20306;-79
2022/07/15 02:09:25;;;;;;;6.75;2.85;;;;;;;9.96;98.29;102103.53;1034586;28;20448;-80
2022/07/15 02:09:57;;;;;;;6.93;2.92;;;;;;;10.03;97.78;102098.31;1040687;28;20327;-78
2022/07/15 02:10:39;;;;;;;7.40;2.38;;;;;;;10.04;98.18;102103.44;1037417;28;20893;-78
2022/07/15 02:11:16;;;;;;;7.28;2.17;;;;;;;9.85;98.06;102093.31;1046137;28;20372;-78
2022/07/15 02:11:51;;;;;;;7.30;2.35;;;;;;;9.85;97.91;102096.78;1040501;28;20296;-78
2022/07/15 02:12:26;;;;;;;7.97;2.55;;;;;;;9.89;98.00;102097.28;1046330;28;20313;-78
2022/07/15 02:13:00;;;;;;;5.40;1.85;;;;;;;9.94;98.30;102092.25;1044846;28;20326;-78
2022/07/15 02:13:32;;;;;;;7.60;2.97;;;;;;;10.02;98.10;102094.00;1044834;28;20377;-78
2022/07/15 02:14:04;;;;;;;6.85;2.60;;;;;;;10.07;98.42;102100.41;1046218;28;20295;-78
2022/07/15 02:14:37;;;;;;;8.43;2.75;;;;;;;10.05;98.32;102091.78;1046632;28;20306;-78
2022/07/15 02:15:09;;;;;;;7.00;2.25;;;;;;;9.98;98.19;102092.69;1040022;28;20793;-78
2022/07/15 02:15:48;;;;;;;8.73;2.50;;;;;;;10.02;98.65;102096.66;1039203;28;20316;-78
2022/07/15 02:16:20;;;;;;;4.32;1.98;;;;;;;10.00;98.81;102098.66;1037127;28;20291;-79
2022/07/15 02:16:53;;;;;;;3.78;2.95;;;;;;;10.02;98.85;102100.13;1036939;28;20301;-78
2022/07/15 02:17:32;;;;;;;3.50;1.90;;;;;;;10.07;99.14;102100.41;1039598;28;20383;-78
2022/07/15 02:18:04;;;;;;;4.95;2.55;;;;;;;10.24;99.13;102094.97;1041129;28;20653;-78
2022/07/15 02:18:36;;;;;;;3.40;2.28;;;;;;;10.30;99.08;102099.53;1040715;28;20307;-79
2022/07/15 02:19:08;;;;;;;7.70;2.63;;;;;;;10.28;99.23;102094.41;1043368;28;20295;-78
2022/07/15 02:19:40;;;;;;;6.75;2.40;;;;;;;10.27;98.84;102089.25;1044186;28;20307;-79
2022/07/15 02:20:11;;;;;;;5.05;1.90;;;;;;;10.23;98.92;102103.97;1048210;28;20302;-79
2022/07/15 02:20:43;;;;;;;5.18;2.25;;;;;;;10.21;98.79;102086.34;1047550;28;20858;-78
2022/07/15 02:21:15;;;;;;;3.58;2.08;;;;;;;10.19;99.45;102092.81;1043463;28;20669;-78
2022/07/15 02:21:47;;;;;;;6.13;2.40;;;;;;;10.20;99.21;102091.81;1043818;28;20295;-78
2022/07/15 02:22:19;;;;;;;4.93;2.50;;;;;;;10.24;99.30;102092.28;1044294;28;20298;-78
2022/07/15 02:22:51;;;;;;;3.33;2.35;;;;;;;10.25;98.97;102085.97;1040435;28;20311;-78
2022/07/15 02:23:23;;;;;;;3.97;2.15;;;;;;;10.28;98.77;102090.91;1043338;28;20646;-78
2022/07/15 02:23:57;;;;;;;6.65;2.50;;;;;;;10.33;98.63;102084.03;1040342;28;20292;-78
2022/07/15 02:24:28;;;;;;;5.68;2.20;;;;;;;10.38;98.49;102089.63;1036774;28;20698;-78
2022/07/15 02:25:00;;;;;;;4.75;2.05;;;;;;;10.42;99.08;102087.44;1036767;28;20297;-78
2022/07/15 02:25:34;;;;;;;8.00;2.92;;;;;;;10.29;98.40;102092.56;1041175;28;20312;-78
2022/07/15 02:26:08;;;;;;;6.13;1.92;;;;;;;10.27;98.39;102090.09;1039810;28;20339;-78
2022/07/15 02:26:40;;;;;;;2.78;2.00;;;;;;;10.32;99.08;102090.38;1036358;28;20650;-78
2022/07/15 02:27:12;;;;;;;7.65;2.25;;;;;;;10.40;99.10;102089.44;1040995;28;20311;-78
2022/07/15 02:27:43;;;;;;;6.47;2.58;;;;;;;10.39;98.58;102093.94;1044703;28;20299;-78
2022/07/15 02:28:16;;;;;;;5.05;2.10;;;;;;;10.45;98.49;102087.06;1049444;28;20321;-78
2022/07/15 02:28:47;;;;;;;6.65;2.30;;;;;;;10.50;98.61;102087.34;1052828;28;20294;-78
2022/07/15 02:29:19;;;;;;;7.22;2.53;;;;;;;10.53;98.42;102089.63;1048302;28;20309;-78
2022/07/15 02:29:51;;;;;;;17.35;3.72;;;;;;;10.55;98.61;102082.28;1048688;28;20295;-78
2022/07/15 02:30:36;;;;;;;6.28;2.28;;;;;;;10.53;98.20;102079.78;1048620;28;20325;-78
2022/07/15 02:31:08;;;;;;;2.33;1.90;;;;;;;10.55;98.58;102090.25;1042366;28;20398;-78
2022/07/15 02:31:41;;;;;;;6.03;2.00;;;;;;;10.61;98.81;102081.53;1040525;28;20662;-78
2022/07/15 02:32:14;;;;;;;8.60;2.28;;;;;;;10.62;97.91;102091.16;1036196;28;20307;-78
2022/07/15 02:32:46;;;;;;;10.23;2.67;;;;;;;10.66;98.02;102084.44;1032713;28;20341;-78
2022/07/15 02:33:18;;;;;;;6.07;2.42;;;;;;;10.71;97.31;102087.41;1033545;28;20304;-78
2022/07/15 02:33:49;;;;;;;8.07;2.47;;;;;;;10.78;97.11;102088.31;1036567;28;20308;-78
2022/07/15 02:34:21;;;;;;;8.15;2.55;;;;;;;10.83;97.17;102091.22;1033132;28;20822;-78
2022/07/15 02:34:52;;;;;;;5.68;2.42;;;;;;;10.87;97.38;102091.69;1036007;28;20751;-78
2022/07/15 02:35:26;;;;;;;5.80;1.90;;;;;;;10.79;97.12;102089.97;1040302;28;20288;-78
2022/07/15 02:35:58;;;;;;;8.52;2.00;;;;;;;10.80;96.77;102082.78;1039595;28;20319;-78
2022/07/15 02:36:29;;;;;;;5.22;2.30;;;;;;;10.76;97.31;102094.84;1040233;28;20781;-78
2022/07/15 02:37:01;;;;;;;18.05;2.63;;;;;;;10.79;97.10;102084.63;1041223;28;20300;-78
2022/07/15 02:37:34;;;;;;;4.90;2.28;;;;;;;10.80;97.38;102086.28;1035044;28;20675;-78
2022/07/15 02:38:06;;;;;;;8.35;2.42;;;;;;;10.83;97.81;102091.22;1037307;28;20764;-78
2022/07/15 02:38:37;;;;;;;10.85;3.33;;;;;;;10.89;97.62;102088.81;1044162;28;20641;-78
2022/07/15 02:39:09;;;;;;;7.10;2.47;;;;;;;10.92;97.23;102086.59;1044676;28;20283;-78
2022/07/15 02:39:40;;;;;;;7.25;2.50;;;;;;;10.95;97.55;102096.88;1045019;28;20307;-79
2022/07/15 02:40:12;;;;;;;8.20;2.47;;;;;;;10.96;97.45;102090.56;1048878;28;20692;-78
2022/07/15 02:40:44;;;;;;;9.93;2.75;;;;;;;10.97;97.24;102086.91;1049078;28;20382;-78
2022/07/15 02:41:16;;;;;;;6.00;2.20;;;;;;;10.97;97.21;102086.06;1044378;28;20307;-78
2022/07/15 02:41:49;;;;;;;3.35;2.40;;;;;;;11.00;97.29;102086.50;1040102;28;20359;-78
2022/07/15 02:42:21;;;;;;;5.63;2.25;;;;;;;11.01;97.08;102088.16;1040290;28;20300;-78
2022/07/15 02:42:56;;;;;;;12.07;2.25;;;;;;;11.04;97.01;102086.97;1036213;28;20311;-78
2022/07/15 02:43:27;;;;;;;4.80;2.13;;;;;;;11.02;97.16;102091.66;1040056;28;20291;-78
2022/07/15 02:44:00;;;;;;;8.75;2.22;;;;;;;10.98;96.92;102087.72;1040255;28;20659;-78
2022/07/15 02:44:32;;;;;;;6.22;2.47;;;;;;;10.96;97.17;102090.56;1039588;28;20296;-78
2022/07/15 02:45:04;;;;;;;7.55;2.47;;;;;;;10.97;96.94;102086.06;1036102;28;20855;-78
2022/07/15 02:45:37;;;;;;;6.30;1.98;;;;;;;11.01;97.03;102088.16;1041586;28;21345;-78
2022/07/15 02:46:12;;;;;;;5.90;2.22;;;;;;;11.03;97.08;102085.31;1040215;28;20304;-78